Terminal Aerodrome Forecast
Issued by NWS Lubbock, TX

Home | Current Version | Previous Version | Text Only | Print | Product List | Glossary On
Versions: 1 2 3 4 5 6 7 8 9 10 11 12 13 14 15 16 17
000
FTUS44 KLUB 210700 AAA
TAFLBB
TAF AMD
KLBB 210712Z 2107/2206 17012KT P6SM FEW010 SCT100 BKN250
     FM211000 19011KT P6SM SCT100 SCT250
     FM211500 18016G22KT P6SM FEW070 SCT250=

USA.gov is the U.S. government's official web portal to all federal, state and local government web resources and services.